createdAt,value
2022-12-08T00:01:32.828Z,3.88
2022-12-08T00:04:03.173Z,4.18
2022-12-08T00:06:53.178Z,4.05
2022-12-08T00:09:39.194Z,4.55
2022-12-08T00:12:15.201Z,3.72
2022-12-08T00:14:44.543Z,4.45
2022-12-08T00:17:13.881Z,4.80
2022-12-08T00:19:41.579Z,4.95
2022-12-08T00:22:11.569Z,4.72
2022-12-08T00:24:42.097Z,4.80
2022-12-08T00:27:17.972Z,5.03
2022-12-08T00:29:50.943Z,4.50
2022-12-08T00:32:22.083Z,4.50
2022-12-08T00:34:56.552Z,4.30
2022-12-08T00:37:26.782Z,4.60
2022-12-08T00:40:04.438Z,4.45
2022-12-08T00:42:35.729Z,4.80
2022-12-08T00:45:05.637Z,4.45
2022-12-08T00:47:34.859Z,4.50
2022-12-08T00:50:10.787Z,4.72
2022-12-08T00:52:51.915Z,4.38
2022-12-08T00:55:18.911Z,3.85
2022-12-08T00:57:45.970Z,4.75
2022-12-08T01:00:15.123Z,4.75
2022-12-08T01:02:48.298Z,4.28
2022-12-08T01:05:15.296Z,4.63
2022-12-08T01:07:49.420Z,4.40
2022-12-08T01:10:16.872Z,5.30
2022-12-08T01:15:14.630Z,4.32
2022-12-08T01:17:46.379Z,4.43
2022-12-08T01:20:14.073Z,4.80
2022-12-08T01:22:44.651Z,4.18
2022-12-08T01:25:11.289Z,3.30
2022-12-08T01:27:39.669Z,3.95
2022-12-08T01:30:07.303Z,3.72
2022-12-08T01:32:41.670Z,4.10
2022-12-08T01:35:08.981Z,3.67
2022-12-08T01:37:40.963Z,4.80
2022-12-08T01:40:11.679Z,4.40
2022-12-08T01:42:41.197Z,3.40
2022-12-08T01:45:17.701Z,4.60
2022-12-08T01:47:52.519Z,4.47
2022-12-08T01:50:22.035Z,4.47
2022-12-08T01:53:12.246Z,4.80
2022-12-08T01:55:43.715Z,5.35
2022-12-08T01:58:47.387Z,4.85
2022-12-08T02:01:17.119Z,4.90
2022-12-08T02:04:02.136Z,5.35
2022-12-08T02:06:36.125Z,5.10
2022-12-08T02:09:08.432Z,4.68
2022-12-08T02:11:40.898Z,5.60
2022-12-08T02:14:13.957Z,4.97
2022-12-08T02:17:13.900Z,4.78
2022-12-08T02:19:52.760Z,5.32
2022-12-08T02:22:36.946Z,5.15
2022-12-08T02:25:44.272Z,4.65
2022-12-08T02:28:55.589Z,5.25
2022-12-08T02:31:58.448Z,4.57
2022-12-08T02:34:41.090Z,5.20
2022-12-08T02:37:22.648Z,5.93
2022-12-08T02:40:00.037Z,4.68
2022-12-08T02:42:51.396Z,5.30
2022-12-08T02:45:46.195Z,5.60
2022-12-08T02:48:14.706Z,6.00
2022-12-08T02:50:42.674Z,5.13
2022-12-08T02:56:06.668Z,4.72
2022-12-08T02:58:45.858Z,5.35
2022-12-08T03:01:46.927Z,5.65
2022-12-08T03:04:30.786Z,5.30
2022-12-08T03:07:14.523Z,4.88
2022-12-08T03:10:03.405Z,5.07
2022-12-08T03:12:44.144Z,5.20
2022-12-08T03:15:15.309Z,3.78
2022-12-08T03:17:49.039Z,4.63
2022-12-08T03:20:20.670Z,3.92
2022-12-08T03:22:50.565Z,4.65
2022-12-08T03:25:21.910Z,5.22
2022-12-08T03:27:50.435Z,5.20
2022-12-08T03:30:17.327Z,5.03
2022-12-08T03:32:52.442Z,4.97
2022-12-08T03:35:29.565Z,4.25
2022-12-08T03:38:08.745Z,3.78
2022-12-08T03:40:35.209Z,3.53
2022-12-08T03:43:01.645Z,4.05
2022-12-08T03:45:28.382Z,4.00
2022-12-08T03:47:54.966Z,4.15
2022-12-08T03:50:21.554Z,4.53
2022-12-08T03:52:48.060Z,4.38
2022-12-08T03:55:14.644Z,4.45
2022-12-08T03:57:41.559Z,4.65
2022-12-08T04:00:13.528Z,5.30
2022-12-08T04:02:40.013Z,4.88
2022-12-08T04:05:06.792Z,4.45
2022-12-08T04:07:33.237Z,4.43
2022-12-08T04:09:59.736Z,4.18
2022-12-08T04:12:26.167Z,4.43
2022-12-08T04:14:52.547Z,3.65
2022-12-08T04:17:18.978Z,2.72
2022-12-08T04:19:45.382Z,2.85
2022-12-08T04:22:11.764Z,2.65
2022-12-08T04:24:38.204Z,2.60
2022-12-08T04:27:04.709Z,2.67
2022-12-08T04:29:31.098Z,2.85
2022-12-08T04:31:57.610Z,2.65
2022-12-08T04:34:24.222Z,2.67
2022-12-08T04:36:50.659Z,2.88
2022-12-08T04:39:17.169Z,2.50
2022-12-08T04:41:43.582Z,2.70
2022-12-08T04:44:09.990Z,2.50
2022-12-08T04:46:41.679Z,2.28
2022-12-08T04:49:09.666Z,1.85
2022-12-08T04:51:36.149Z,1.90
2022-12-08T04:54:02.529Z,1.75
2022-12-08T04:56:28.949Z,1.40
2022-12-08T04:58:55.403Z,2.00
2022-12-08T05:01:21.906Z,2.08
2022-12-08T05:03:48.347Z,1.63
2022-12-08T05:06:14.967Z,1.00
2022-12-08T05:08:42.951Z,0.93
2022-12-08T05:11:11.233Z,1.63
2022-12-08T05:13:37.821Z,0.90
2022-12-08T05:16:08.433Z,0.70
2022-12-08T05:18:35.537Z,0.80
2022-12-08T05:21:02.261Z,1.52
2022-12-08T05:23:28.793Z,1.60
2022-12-08T05:25:55.248Z,1.30
2022-12-08T05:31:08.445Z,0.80
2022-12-08T05:33:34.910Z,1.00
2022-12-08T05:36:01.354Z,0.60
2022-12-08T05:38:27.823Z,0.70
2022-12-08T05:40:54.212Z,0.73
2022-12-08T05:43:20.831Z,0.60
2022-12-08T05:45:47.292Z,0.70
2022-12-08T05:48:13.727Z,1.10
2022-12-08T05:50:40.126Z,0.80
2022-12-08T05:53:06.559Z,1.00
2022-12-08T05:55:33.060Z,0.98
2022-12-08T05:58:03.134Z,1.10
2022-12-08T06:00:34.797Z,1.90
2022-12-08T06:03:01.469Z,1.50
2022-12-08T06:05:28.008Z,1.88
2022-12-08T06:07:54.745Z,2.13
2022-12-08T06:10:21.250Z,1.92
2022-12-08T06:12:47.703Z,2.58
2022-12-08T06:15:14.153Z,2.80
2022-12-08T06:17:40.562Z,3.67
2022-12-08T06:20:07.831Z,3.20
2022-12-08T06:22:35.169Z,2.88
2022-12-08T06:25:03.248Z,2.92
2022-12-08T06:27:33.628Z,3.42
2022-12-08T06:30:00.147Z,3.30
2022-12-08T06:32:27.743Z,3.42
2022-12-08T06:34:54.281Z,3.90
2022-12-08T06:37:20.675Z,3.75
2022-12-08T06:39:47.102Z,3.80
2022-12-08T06:42:32.444Z,3.67
2022-12-08T06:44:59.834Z,3.85
2022-12-08T06:47:26.593Z,3.67
2022-12-08T06:49:53.106Z,3.80
2022-12-08T06:52:19.570Z,3.70
2022-12-08T06:54:46.168Z,3.33
2022-12-08T06:57:12.638Z,3.67
2022-12-08T06:59:39.760Z,3.47
2022-12-08T07:02:06.799Z,3.85
2022-12-08T07:04:33.227Z,4.10
2022-12-08T07:06:59.670Z,3.75
2022-12-08T07:09:26.107Z,4.03
2022-12-08T07:11:52.668Z,4.93
2022-12-08T07:14:23.539Z,3.10
2022-12-08T07:16:52.969Z,4.30
2022-12-08T07:19:19.673Z,3.47
2022-12-08T07:21:46.259Z,2.90
2022-12-08T07:24:12.975Z,3.00
2022-12-08T07:26:41.176Z,2.92
2022-12-08T07:29:07.818Z,3.30
2022-12-08T07:31:34.355Z,3.10
2022-12-08T07:34:00.899Z,3.05
2022-12-08T07:36:27.623Z,2.95
2022-12-08T07:38:54.227Z,3.55
2022-12-08T07:41:23.901Z,3.30
2022-12-08T07:43:50.985Z,3.90
2022-12-08T07:46:20.408Z,3.88
2022-12-08T07:48:47.659Z,4.05
2022-12-08T07:51:15.812Z,3.58
2022-12-08T07:53:53.385Z,4.05
2022-12-08T07:56:21.594Z,4.38
2022-12-08T07:58:47.998Z,4.47
2022-12-08T08:01:31.798Z,4.07
2022-12-08T08:04:04.413Z,4.32
2022-12-08T08:06:32.630Z,4.55
2022-12-08T08:08:59.047Z,4.72
2022-12-08T08:11:25.688Z,5.60
2022-12-08T08:13:53.069Z,5.30
2022-12-08T08:16:20.159Z,6.70
2022-12-08T08:18:50.797Z,5.63
2022-12-08T08:21:44.458Z,5.93
2022-12-08T08:24:05.952Z,6.38
2022-12-08T08:26:32.541Z,4.75
2022-12-08T08:28:59.064Z,4.75
2022-12-08T08:31:26.932Z,4.82
2022-12-08T08:33:54.194Z,3.90
2022-12-08T08:36:22.005Z,4.45
2022-12-08T08:38:48.541Z,4.47
2022-12-08T08:41:15.025Z,3.90
2022-12-08T08:43:41.523Z,4.20
2022-12-08T08:46:08.992Z,4.28
2022-12-08T08:48:36.199Z,4.60
2022-12-08T08:51:11.082Z,4.22
2022-12-08T08:53:38.097Z,4.10
2022-12-08T08:56:12.588Z,4.05
2022-12-08T08:58:39.600Z,3.60
2022-12-08T09:01:06.320Z,4.13
2022-12-08T09:03:33.065Z,3.45
2022-12-08T09:05:59.693Z,3.47
2022-12-08T09:08:26.785Z,4.75
2022-12-08T09:10:53.282Z,4.10
2022-12-08T09:13:19.758Z,3.88
2022-12-08T09:15:46.196Z,4.45
2022-12-08T09:18:12.734Z,3.95
2022-12-08T09:20:39.350Z,3.85
2022-12-08T09:23:05.856Z,4.20
2022-12-08T09:25:32.327Z,4.38
2022-12-08T09:27:58.765Z,4.30
2022-12-08T09:30:25.246Z,4.18
2022-12-08T09:32:51.700Z,4.88
2022-12-08T09:35:18.149Z,3.92
2022-12-08T09:37:44.689Z,3.80
2022-12-08T09:40:16.818Z,4.05
2022-12-08T09:42:47.455Z,4.63
2022-12-08T09:45:16.527Z,4.70
2022-12-08T09:47:48.902Z,7.22
2022-12-08T09:50:22.627Z,11.13
2022-12-08T09:53:14.052Z,7.45
2022-12-08T09:55:52.060Z,8.52
2022-12-08T09:58:25.498Z,5.72
2022-12-08T10:00:52.071Z,11.85
2022-12-08T10:03:19.136Z,3.85
2022-12-08T10:05:54.304Z,8.93
2022-12-08T10:08:29.235Z,4.90
2022-12-08T10:11:04.707Z,4.07
2022-12-08T10:14:00.112Z,13.70
2022-12-08T10:16:40.579Z,9.80
2022-12-08T10:19:22.748Z,4.85
2022-12-08T10:21:49.874Z,3.35
2022-12-08T10:24:32.267Z,3.45
2022-12-08T10:26:59.250Z,3.33
2022-12-08T10:29:25.762Z,8.88
2022-12-08T10:31:52.281Z,9.52
2022-12-08T10:34:25.207Z,3.25
2022-12-08T10:36:57.437Z,5.72
2022-12-08T10:39:37.628Z,12.52
2022-12-08T10:42:15.604Z,23.83
2022-12-08T10:44:57.298Z,9.13
2022-12-08T10:47:26.507Z,5.53
2022-12-08T10:50:09.342Z,3.67
2022-12-08T10:52:40.389Z,3.35
2022-12-08T10:55:21.373Z,3.45
2022-12-08T10:57:50.919Z,3.83
2022-12-08T11:00:20.756Z,3.30
2022-12-08T11:02:55.221Z,4.80
2022-12-08T11:05:23.249Z,4.00
2022-12-08T11:07:52.602Z,7.20
2022-12-08T11:10:21.432Z,3.88
2022-12-08T11:12:50.396Z,2.67
2022-12-08T11:15:18.139Z,2.92
2022-12-08T11:17:48.680Z,2.72
2022-12-08T11:20:23.440Z,2.80
2022-12-08T11:22:55.387Z,3.33
2022-12-08T11:25:26.811Z,3.33
2022-12-08T11:27:57.078Z,3.13
2022-12-08T11:30:26.139Z,2.90
2022-12-08T11:33:15.649Z,2.47
2022-12-08T11:35:45.581Z,3.63
2022-12-08T11:38:21.519Z,3.40
2022-12-08T11:40:53.248Z,3.08
2022-12-08T11:43:34.723Z,3.38
2022-12-08T11:46:32.381Z,2.60
2022-12-08T11:49:06.335Z,2.20
2022-12-08T11:51:37.988Z,2.80
2022-12-08T11:54:22.438Z,2.47
2022-12-08T11:56:53.786Z,2.45
2022-12-08T11:59:38.248Z,2.40
2022-12-08T12:02:06.165Z,15.40
2022-12-08T12:04:39.407Z,8.00
2022-12-08T12:07:30.275Z,5.32
2022-12-08T12:10:17.801Z,3.20
2022-12-08T12:13:05.636Z,2.72
2022-12-08T12:15:31.995Z,2.70
2022-12-08T12:18:16.710Z,3.08
2022-12-08T12:20:56.176Z,3.03
2022-12-08T12:23:34.874Z,3.78
2022-12-08T12:26:04.649Z,7.45
2022-12-08T12:28:42.919Z,5.00
2022-12-08T12:31:16.333Z,4.40
2022-12-08T12:33:45.605Z,3.20
2022-12-08T12:36:13.842Z,2.80
2022-12-08T12:39:01.621Z,3.15
2022-12-08T12:41:34.498Z,3.13
2022-12-08T12:44:13.054Z,2.22
2022-12-08T12:46:48.799Z,2.30
2022-12-08T12:49:43.611Z,2.40
2022-12-08T12:52:12.787Z,3.03
2022-12-08T12:55:02.221Z,4.05
2022-12-08T12:57:40.270Z,5.90
2022-12-08T13:00:19.922Z,7.72
2022-12-08T13:02:51.667Z,3.15
2022-12-08T13:05:27.528Z,10.70
2022-12-08T13:08:24.335Z,2.53
2022-12-08T13:11:05.819Z,2.40
2022-12-08T13:13:33.264Z,3.05
2022-12-08T13:16:18.529Z,2.97
2022-12-08T13:19:13.903Z,1.75
2022-12-08T13:21:41.003Z,2.10
2022-12-08T13:24:10.229Z,2.17
2022-12-08T13:27:04.723Z,1.83
2022-12-08T13:29:35.473Z,1.95
2022-12-08T13:32:04.106Z,1.80
2022-12-08T13:34:33.261Z,1.60
2022-12-08T13:37:08.712Z,1.73
2022-12-08T13:39:41.254Z,1.40
2022-12-08T13:42:44.861Z,6.60
2022-12-08T13:48:42.619Z,6.53
2022-12-08T13:53:22.411Z,3.45
2022-12-08T13:57:08.482Z,1.50
2022-12-08T13:59:43.918Z,2.40
2022-12-08T14:02:26.285Z,9.77
2022-12-08T14:05:23.569Z,4.72
2022-12-08T14:07:42.068Z,7.28
2022-12-08T14:10:14.105Z,13.55
2022-12-08T14:12:44.595Z,10.30
2022-12-08T14:15:14.308Z,10.25
2022-12-08T14:17:41.658Z,3.00
2022-12-08T14:20:22.362Z,1.77
2022-12-08T14:22:50.340Z,1.95
2022-12-08T14:25:18.643Z,1.60
2022-12-08T14:27:46.447Z,1.58
2022-12-08T14:30:15.990Z,1.60
2022-12-08T14:32:54.846Z,1.50
2022-12-08T14:35:25.936Z,1.90
2022-12-08T14:37:58.956Z,1.77
2022-12-08T14:40:32.547Z,1.60
2022-12-08T14:43:15.108Z,1.60
2022-12-08T14:45:41.485Z,2.00
2022-12-08T14:48:36.352Z,1.80
2022-12-08T14:51:05.945Z,1.90
2022-12-08T14:53:46.348Z,2.53
2022-12-08T14:56:37.379Z,2.25
2022-12-08T14:59:17.881Z,2.40
2022-12-08T15:01:45.969Z,2.17
2022-12-08T15:04:20.144Z,2.00
2022-12-08T15:07:07.356Z,1.90
2022-12-08T15:09:42.746Z,3.28
2022-12-08T15:12:12.197Z,3.60
2022-12-08T15:14:44.039Z,4.45
2022-12-08T15:17:32.020Z,4.70
2022-12-08T15:20:00.632Z,6.80
2022-12-08T15:22:29.267Z,10.15
2022-12-08T15:24:56.484Z,4.60
2022-12-08T15:27:25.063Z,4.80
2022-12-08T15:32:20.927Z,3.88
2022-12-08T15:34:47.744Z,4.10
2022-12-08T15:37:21.947Z,5.20
2022-12-08T15:39:49.106Z,17.08
2022-12-08T15:42:15.893Z,12.40
2022-12-08T15:44:42.736Z,6.53
2022-12-08T15:47:23.560Z,3.53
2022-12-08T15:49:52.421Z,2.80
2022-12-08T15:52:21.731Z,2.50
2022-12-08T15:54:49.072Z,2.90
2022-12-08T15:57:53.410Z,3.50
2022-12-08T16:09:12.726Z,3.17
2022-12-08T16:12:06.573Z,2.80
2022-12-08T16:17:21.692Z,3.45
2022-12-08T16:19:49.410Z,3.05
2022-12-08T16:25:20.672Z,3.65
2022-12-08T16:28:29.366Z,3.50
2022-12-08T16:30:37.229Z,4.40
2022-12-08T16:33:03.940Z,5.30
2022-12-08T16:35:30.767Z,4.45
2022-12-08T16:37:57.934Z,3.92
2022-12-08T16:40:24.572Z,4.07
2022-12-08T16:42:51.051Z,4.68
2022-12-08T16:45:18.711Z,4.28
2022-12-08T16:47:48.870Z,4.22
2022-12-08T16:50:30.443Z,5.60
2022-12-08T16:53:03.123Z,5.35
2022-12-08T16:55:29.928Z,4.18
2022-12-08T16:57:56.672Z,4.63
2022-12-08T17:00:28.073Z,8.93
2022-12-08T17:02:55.335Z,9.40
2022-12-08T17:05:24.144Z,7.38
2022-12-08T17:07:53.093Z,7.47
2022-12-08T17:10:25.873Z,5.50
2022-12-08T17:12:53.256Z,4.68
2022-12-08T17:15:24.504Z,4.10
2022-12-08T17:17:52.134Z,4.20
2022-12-08T17:20:24.182Z,9.57
2022-12-08T17:22:53.931Z,8.90
2022-12-08T17:25:20.694Z,5.72
2022-12-08T17:27:47.113Z,5.82
2022-12-08T17:30:15.654Z,5.40
2022-12-08T17:32:43.169Z,4.63
2022-12-08T17:35:10.740Z,5.45
2022-12-08T17:37:37.365Z,6.00
2022-12-08T17:40:04.707Z,7.70
2022-12-08T17:42:31.504Z,6.73
2022-12-08T17:44:57.966Z,7.10
2022-12-08T17:47:24.602Z,8.13
2022-12-08T17:49:51.035Z,7.75
2022-12-08T17:52:17.558Z,7.15
2022-12-08T17:54:44.297Z,8.02
2022-12-08T17:57:10.715Z,7.72
2022-12-08T17:59:37.115Z,7.50
2022-12-08T18:02:04.466Z,8.25
2022-12-08T18:04:31.202Z,7.82
2022-12-08T18:07:00.152Z,7.63
2022-12-08T18:09:27.031Z,8.55
2022-12-08T18:11:53.665Z,9.93
2022-12-08T18:14:20.219Z,9.80
2022-12-08T18:16:47.592Z,10.63
2022-12-08T18:19:14.978Z,10.45
2022-12-08T18:21:42.111Z,9.40
2022-12-08T18:24:18.228Z,10.52
2022-12-08T18:26:45.455Z,10.95
2022-12-08T18:29:11.908Z,12.00
2022-12-08T18:31:38.376Z,13.32
2022-12-08T18:34:04.852Z,13.23
2022-12-08T18:36:31.313Z,19.50
2022-12-08T18:38:57.901Z,26.92
2022-12-08T18:41:25.868Z,15.98
2022-12-08T18:43:53.903Z,11.63
2022-12-08T18:46:20.953Z,10.75
2022-12-08T18:48:48.982Z,11.32
2022-12-08T18:51:18.568Z,10.15
2022-12-08T18:53:46.066Z,9.05
2022-12-08T18:56:27.830Z,9.93
2022-12-08T18:59:01.311Z,11.57
2022-12-08T19:01:30.013Z,10.18
2022-12-08T19:06:48.156Z,13.07
2022-12-08T19:09:15.756Z,13.20
2022-12-08T19:11:43.249Z,14.10
2022-12-08T19:14:10.799Z,18.02
2022-12-08T19:16:38.041Z,14.47
2022-12-08T19:19:04.988Z,13.57
2022-12-08T19:21:32.383Z,13.95
2022-12-08T19:23:59.813Z,13.02
2022-12-08T19:26:30.587Z,12.82
2022-12-08T19:28:57.721Z,13.68
2022-12-08T19:31:24.211Z,14.10
2022-12-08T19:33:50.818Z,12.90
2022-12-08T19:36:20.845Z,13.93
2022-12-08T19:39:06.537Z,13.63
2022-12-08T19:41:52.296Z,15.00
2022-12-08T19:44:39.830Z,12.73
2022-12-08T19:47:06.568Z,12.48
2022-12-08T19:49:33.188Z,13.02
2022-12-08T19:51:59.934Z,15.27
2022-12-08T19:54:26.530Z,16.48
2022-12-08T19:56:53.968Z,16.02
2022-12-08T19:59:20.527Z,15.90
2022-12-08T20:01:48.325Z,16.17
2022-12-08T20:04:16.421Z,15.07
2022-12-08T20:06:43.914Z,24.92
2022-12-08T20:09:11.026Z,16.75
2022-12-08T20:11:38.144Z,12.50
2022-12-08T20:14:05.110Z,12.70
2022-12-08T20:16:32.290Z,12.95
2022-12-08T20:18:58.948Z,13.63
2022-12-08T20:21:25.492Z,13.18
2022-12-08T20:23:52.050Z,14.25
2022-12-08T20:26:20.816Z,14.05
2022-12-08T20:28:47.615Z,14.50
2022-12-08T20:31:25.340Z,14.45
2022-12-08T20:33:52.450Z,14.75
2022-12-08T20:36:20.657Z,14.98
2022-12-08T20:38:51.918Z,14.70
2022-12-08T20:41:19.247Z,14.65
2022-12-08T20:43:47.240Z,14.77
2022-12-08T20:46:16.641Z,15.90
2022-12-08T20:48:44.320Z,15.65
2022-12-08T20:51:18.817Z,14.37
2022-12-08T20:53:45.813Z,14.85
2022-12-08T20:56:18.007Z,14.60
2022-12-08T20:58:45.423Z,14.18
2022-12-08T21:01:14.950Z,13.80
2022-12-08T21:03:42.806Z,14.10
2022-12-08T21:06:10.589Z,14.32
2022-12-08T21:11:07.689Z,14.50
2022-12-08T21:13:37.024Z,15.15
2022-12-08T21:16:11.899Z,15.15
2022-12-08T21:18:46.657Z,14.23
2022-12-08T21:21:17.826Z,14.00
2022-12-08T21:23:45.914Z,14.82
2022-12-08T21:26:22.371Z,14.93
2022-12-08T21:28:50.643Z,14.50
2022-12-08T21:31:21.472Z,13.40
2022-12-08T21:33:48.879Z,14.48
2022-12-08T21:36:18.691Z,14.98
2022-12-08T21:38:50.983Z,14.50
2022-12-08T21:41:41.274Z,14.68
2022-12-08T21:44:09.998Z,15.75
2022-12-08T21:46:37.168Z,16.42
2022-12-08T21:49:04.767Z,15.88
2022-12-08T21:51:33.540Z,15.13
2022-12-08T21:54:00.353Z,14.82
2022-12-08T21:56:27.058Z,15.98
2022-12-08T21:58:59.567Z,15.40
2022-12-08T22:01:26.576Z,15.07
2022-12-08T22:04:17.084Z,16.20
2022-12-08T22:06:45.589Z,16.15
2022-12-08T22:09:21.013Z,15.10
2022-12-08T22:12:06.707Z,15.98
2022-12-08T22:14:40.384Z,15.25
2022-12-08T22:17:09.566Z,16.08
2022-12-08T22:19:36.460Z,16.23
2022-12-08T22:22:03.496Z,16.27
2022-12-08T22:24:31.371Z,16.75
2022-12-08T22:26:58.313Z,16.63
2022-12-08T22:29:24.888Z,14.80
2022-12-08T22:31:51.557Z,14.98
2022-12-08T22:34:18.143Z,15.48
2022-12-08T22:36:44.584Z,14.73
2022-12-08T22:39:12.132Z,16.10
2022-12-08T22:41:38.804Z,15.68
2022-12-08T22:44:06.553Z,15.93
2022-12-08T22:46:33.185Z,15.25
2022-12-08T22:48:59.934Z,15.60
2022-12-08T22:51:26.448Z,15.80
2022-12-08T22:53:53.085Z,15.32
2022-12-08T22:56:20.120Z,14.82
2022-12-08T22:58:46.605Z,14.52
2022-12-08T23:01:38.974Z,15.80
2022-12-08T23:04:05.636Z,15.38
2022-12-08T23:06:32.272Z,14.60
2022-12-08T23:08:59.207Z,14.75
2022-12-08T23:11:29.222Z,15.23
2022-12-08T23:13:57.208Z,15.68
2022-12-08T23:16:23.916Z,16.25
2022-12-08T23:18:50.487Z,16.00
2022-12-08T23:21:19.504Z,15.75
2022-12-08T23:23:46.660Z,16.02
2022-12-08T23:26:22.948Z,15.70
2022-12-08T23:28:50.131Z,16.67
2022-12-08T23:31:17.566Z,15.40
2022-12-08T23:33:44.304Z,16.50
2022-12-08T23:36:12.003Z,17.02
2022-12-08T23:38:38.637Z,17.90
2022-12-08T23:41:07.705Z,17.85
2022-12-08T23:43:49.978Z,16.73
2022-12-08T23:46:21.748Z,16.17
2022-12-08T23:48:58.831Z,14.93
2022-12-08T23:51:40.951Z,15.55
2022-12-08T23:54:23.160Z,15.18
2022-12-08T23:57:10.320Z,14.95
2022-12-08T23:59:46.015Z,15.07
